Time;durP1;ratioP1;P1;durP2;ratioP2;P2;SDS_P1;SDS_P2;PMS_P1;PMS_P2;Temp;Humidity;BMP_temperature;BMP_pressure;BME280_temperature;BME280_humidity;BME280_pressure;Samples;Min_cycle;Max_cycle;Signal;HPM_P1;HPM_P2
2021/11/01 00:02:17;;;;;;;6.55;2.05;;;;;;;8.43;85.76;99762.75;5092306;28;20274;-66
2021/11/01 00:04:44;;;;;;;6.47;1.90;;;;;;;8.43;85.38;99760.09;5091993;28;20479;-66
2021/11/01 00:07:13;;;;;;;8.52;2.22;;;;;;;8.46;85.60;99767.78;5092017;28;20123;-67
2021/11/01 00:09:39;;;;;;;6.25;2.13;;;;;;;8.47;85.53;99774.75;5092117;28;20086;-67
2021/11/01 00:12:05;;;;;;;9.70;1.88;;;;;;;8.46;85.46;99757.16;5092028;28;20020;-65
2021/11/01 00:14:32;;;;;;;9.35;2.25;;;;;;;8.44;85.65;99759.09;5091850;28;20035;-67
2021/11/01 00:16:58;;;;;;;7.10;1.90;;;;;;;8.44;85.55;99759.09;5091776;28;20051;-65
2021/11/01 00:19:24;;;;;;;6.57;2.03;;;;;;;8.43;85.58;99768.06;5091762;28;20074;-66
2021/11/01 00:21:50;;;;;;;5.93;1.92;;;;;;;8.38;85.54;99765.06;5091878;28;20039;-66
2021/11/01 00:24:18;;;;;;;7.60;1.75;;;;;;;8.31;85.98;99756.91;5091365;28;20028;-66
2021/11/01 00:26:43;;;;;;;13.80;2.95;;;;;;;8.24;86.10;99754.09;5091485;28;20522;-67
2021/11/01 00:29:10;;;;;;;4.93;2.00;;;;;;;8.28;85.60;99755.41;5091504;28;20031;-67
2021/11/01 00:31:37;;;;;;;8.25;1.70;;;;;;;8.28;85.96;99762.56;5091649;28;20040;-67
2021/11/01 00:34:02;;;;;;;6.15;1.73;;;;;;;8.25;85.81;99763.72;5091725;28;20020;-65
2021/11/01 00:36:28;;;;;;;8.68;1.70;;;;;;;8.26;85.77;99761.88;5090944;28;20537;-65
2021/11/01 00:38:53;;;;;;;7.37;1.93;;;;;;;8.24;85.43;99758.56;5091491;28;20024;-65
2021/11/01 00:41:19;;;;;;;8.25;2.05;;;;;;;8.23;85.60;99756.91;5091398;28;20020;-65
2021/11/01 00:43:44;;;;;;;8.63;1.97;;;;;;;8.24;85.12;99759.41;5091344;28;20035;-66
2021/11/01 00:46:10;;;;;;;9.27;3.35;;;;;;;8.24;84.70;99764.72;5091269;28;20036;-66
2021/11/01 00:48:36;;;;;;;7.82;2.10;;;;;;;8.22;84.95;99757.91;5091449;28;20464;-66
2021/11/01 00:51:01;;;;;;;6.93;1.92;;;;;;;8.15;85.30;99755.06;5091207;28;20067;-66
2021/11/01 00:53:32;;;;;;;5.53;1.50;;;;;;;8.17;84.99;99758.41;5091040;28;20028;-66
2021/11/01 00:55:58;;;;;;;8.40;1.93;;;;;;;8.17;84.54;99754.91;5072975;28;20696;-67
2021/11/01 00:58:24;;;;;;;;;;;;;;;8.17;84.22;99749.59;5091530;28;20052;-67
2021/11/01 01:00:51;;;;;;;7.18;1.48;;;;;;;8.13;84.38;99749.94;5090938;28;20008;-66
2021/11/01 01:03:17;;;;;;;9.00;1.60;;;;;;;8.16;84.35;99745.31;5091252;28;20020;-65
2021/11/01 01:05:43;;;;;;;7.95;1.90;;;;;;;8.19;83.86;99748.44;5090179;28;20046;-66
2021/11/01 01:08:12;;;;;;;;;;;;;;;8.26;83.77;99746.81;5091437;28;20111;-66
2021/11/01 01:10:38;;;;;;;7.63;1.97;;;;;;;8.29;83.03;99741.16;5090871;28;20297;-66
2021/11/01 01:13:06;;;;;;;4.50;1.70;;;;;;;8.28;83.00;99739.50;5090935;28;20024;-65
2021/11/01 01:15:39;;;;;;;5.90;1.33;;;;;;;8.31;82.56;99727.72;5090844;28;20118;-65
2021/11/01 01:18:11;;;;;;;9.15;1.65;;;;;;;8.27;82.72;99735.19;5090875;28;20184;-65
2021/11/01 01:20:37;;;;;;;8.70;2.30;;;;;;;8.23;82.64;99731.19;5090963;28;20074;-66
2021/11/01 01:23:02;;;;;;;6.03;2.07;;;;;;;8.20;82.75;99733.38;5090786;28;20051;-66
2021/11/01 01:25:36;;;;;;;6.67;1.60;;;;;;;8.17;82.56;99729.22;5100515;22;20052;-65
2021/11/01 01:28:02;;;;;;;5.47;1.38;;;;;;;8.12;82.84;99721.72;5073177;28;20409;-65
2021/11/01 01:30:29;;;;;;;7.87;1.90;;;;;;;8.08;82.84;99717.75;5090934;28;20050;-67
2021/11/01 01:32:54;;;;;;;6.97;2.33;;;;;;;8.10;82.56;99712.25;5090701;28;20020;-65
2021/11/01 01:35:20;;;;;;;5.20;2.10;;;;;;;8.07;83.44;99705.47;5090784;28;20024;-66
2021/11/01 01:37:46;;;;;;;4.90;1.80;;;;;;;8.07;82.90;99697.50;5090593;28;20034;-65
2021/11/01 01:40:16;;;;;;;5.13;1.38;;;;;;;8.08;82.76;99708.97;5090737;28;20056;-65
2021/11/01 01:42:41;;;;;;;7.20;1.70;;;;;;;8.08;82.43;99693.84;5090532;28;20102;-65
2021/11/01 01:45:08;;;;;;;3.87;1.63;;;;;;;8.07;82.57;99694.84;5090559;28;20111;-66
2021/11/01 01:47:35;;;;;;;4.15;1.73;;;;;;;8.07;82.72;99686.06;5072122;28;20115;-66
2021/11/01 01:50:02;;;;;;;;;;;;;;;8.06;82.44;99693.19;5090953;28;20036;-66
2021/11/01 01:52:30;;;;;;;5.65;1.65;;;;;;;8.06;82.67;99702.97;5090567;28;19922;-65
2021/11/01 01:54:55;;;;;;;7.43;2.30;;;;;;;7.97;83.26;99702.97;5090297;28;20029;-66
2021/11/01 01:57:21;;;;;;;7.53;1.70;;;;;;;7.89;83.18;99689.69;5090394;28;20027;-66
2021/11/01 01:59:47;;;;;;;3.92;1.45;;;;;;;7.87;83.27;99689.00;5090320;28;20039;-65
2021/11/01 02:02:13;;;;;;;5.43;1.55;;;;;;;7.86;83.44;99692.66;5090549;28;20024;-65
2021/11/01 02:04:39;;;;;;;6.25;1.80;;;;;;;7.92;82.66;99677.91;5090566;28;20107;-66
2021/11/01 02:07:29;;;;;;;8.60;1.83;;;;;;;7.92;82.86;99680.56;5090475;28;20020;-66
2021/11/01 02:10:16;;;;;;;3.95;1.88;;;;;;;7.91;83.01;99692.19;5090324;28;20277;-65
2021/11/01 02:12:41;;;;;;;;;;;;;;;7.88;83.08;99680.06;5090896;28;20047;-65
2021/11/01 02:15:15;;;;;;;4.50;1.67;;;;;;;7.89;83.10;99684.38;5090275;28;19912;-65
2021/11/01 02:17:41;;;;;;;8.57;1.83;;;;;;;7.88;83.07;99689.81;5092391;28;20454;-65
2021/11/01 02:20:10;;;;;;;6.13;1.70;;;;;;;7.86;83.12;99683.88;5094548;28;20024;-65
2021/11/01 02:22:51;;;;;;;6.77;1.90;;;;;;;7.92;82.91;99692.00;5094207;28;20035;-65
2021/11/01 02:25:28;;;;;;;3.80;1.63;;;;;;;7.89;83.07;99695.00;5093740;28;20052;-65
2021/11/01 02:27:53;;;;;;;3.90;1.20;;;;;;;7.90;83.03;99701.13;5093941;28;20391;-66
2021/11/01 02:30:19;;;;;;;4.35;2.00;;;;;;;7.98;82.01;99693.16;5093880;28;20035;-65
2021/11/01 02:32:46;;;;;;;3.40;1.42;;;;;;;8.00;82.09;99701.81;5093934;28;20032;-65
2021/11/01 02:35:12;;;;;;;5.33;1.60;;;;;;;7.99;82.18;99705.44;5093882;28;20028;-65
2021/11/01 02:37:40;;;;;;;3.37;1.87;;;;;;;7.98;81.88;99701.13;5093731;28;20078;-66
2021/11/01 02:40:10;;;;;;;6.70;1.80;;;;;;;7.98;82.22;99704.63;5094092;28;20024;-65
2021/11/01 02:42:36;;;;;;;6.07;1.40;;;;;;;8.02;82.08;99693.69;5093671;28;20016;-65
2021/11/01 02:45:08;;;;;;;2.72;1.25;;;;;;;8.04;82.15;99712.94;5093683;28;20498;-66
2021/11/01 02:47:34;;;;;;;8.55;2.28;;;;;;;8.12;81.63;99697.03;5093716;28;20032;-65
2021/11/01 02:50:00;;;;;;;6.22;1.70;;;;;;;8.17;81.28;99710.63;5093523;28;20028;-66
2021/11/01 02:52:27;;;;;;;3.77;1.97;;;;;;;8.29;80.48;99698.69;5093741;28;20048;-65
2021/11/01 02:54:53;;;;;;;5.90;1.33;;;;;;;8.33;80.29;99699.19;5093599;28;20080;-68
2021/11/01 02:57:19;;;;;;;10.30;1.60;;;;;;;8.38;79.68;99698.69;5093419;28;20024;-66
2021/11/01 02:59:44;;;;;;;3.95;1.45;;;;;;;8.42;79.83;99703.53;5093399;28;20073;-65
2021/11/01 03:02:10;;;;;;;6.00;1.75;;;;;;;8.42;80.23;99703.53;5093366;28;20150;-65
2021/11/01 03:04:36;;;;;;;6.70;1.67;;;;;;;8.39;80.05;99713.63;5093527;28;20031;-65
2021/11/01 03:07:01;;;;;;;4.82;1.48;;;;;;;8.38;80.07;99704.00;5093150;28;20526;-66
2021/11/01 03:09:32;;;;;;;4.53;1.65;;;;;;;8.36;79.72;99714.78;5093061;28;20032;-65
2021/11/01 03:12:01;;;;;;;5.35;1.50;;;;;;;8.36;79.94;99709.47;5093164;28;20043;-65
2021/11/01 03:14:29;;;;;;;3.60;1.42;;;;;;;8.30;80.07;99718.13;5092878;28;20188;-65
2021/11/01 03:16:58;;;;;;;5.90;1.95;;;;;;;8.21;80.77;99711.97;5074917;28;20032;-66
2021/11/01 03:19:29;;;;;;;6.10;1.30;;;;;;;8.10;81.06;99710.47;5092992;28;20055;-65
2021/11/01 03:21:58;;;;;;;3.57;1.30;;;;;;;8.03;81.45;99716.56;5092952;28;20095;-66
2021/11/01 03:24:28;;;;;;;4.15;1.33;;;;;;;8.01;81.19;99705.28;5092653;28;20036;-67
2021/11/01 03:26:56;;;;;;;4.83;2.07;;;;;;;8.03;80.95;99700.66;5092813;28;20106;-66
2021/11/01 03:29:23;;;;;;;4.90;1.13;;;;;;;8.08;81.04;99701.81;5091855;28;20027;-65
2021/11/01 03:31:49;;;;;;;3.63;1.50;;;;;;;8.08;80.99;99685.06;5092843;28;20035;-66
2021/11/01 03:34:15;;;;;;;;;;;;;;;8.10;80.82;99696.34;5093106;28;20162;-65
2021/11/01 03:36:41;;;;;;;8.45;1.92;;;;;;;8.13;80.45;99694.19;5092696;28;20358;-65
2021/11/01 03:39:10;;;;;;;4.53;1.80;;;;;;;8.11;80.72;99692.69;5092690;28;20187;-65
2021/11/01 03:41:36;;;;;;;6.17;1.80;;;;;;;8.03;80.93;99693.50;5092792;28;20024;-64
2021/11/01 03:44:07;;;;;;;3.33;1.70;;;;;;;8.05;81.48;99685.38;5092497;28;20406;-67
2021/11/01 03:46:41;;;;;;;4.75;1.42;;;;;;;8.09;81.61;99698.19;5092543;28;20059;-65
2021/11/01 03:49:09;;;;;;;8.85;2.10;;;;;;;8.10;81.18;99691.03;5092624;28;20110;-65
2021/11/01 03:51:50;;;;;;;6.47;1.37;;;;;;;8.07;81.98;99691.38;5092572;28;20119;-65
2021/11/01 03:54:18;;;;;;;6.55;1.65;;;;;;;8.09;81.64;99697.31;5092225;28;20093;-65
2021/11/01 03:56:45;;;;;;;2.97;1.60;;;;;;;8.10;81.37;99677.75;5092271;28;20028;-65
2021/11/01 03:59:12;;;;;;;7.03;1.83;;;;;;;8.04;81.99;99689.88;5092028;28;20024;-66
2021/11/01 04:01:39;;;;;;;7.40;1.60;;;;;;;7.97;82.54;99680.88;5092432;28;20051;-67
2021/11/01 04:04:06;;;;;;;8.63;1.77;;;;;;;7.95;82.72;99678.41;5092385;28;20016;-65
2021/11/01 04:06:32;;;;;;;6.67;2.13;;;;;;;7.96;82.90;99689.88;5092017;28;20020;-67
2021/11/01 04:08:58;;;;;;;5.00;1.65;;;;;;;7.92;83.07;99697.31;5092023;28;20028;-65
2021/11/01 04:11:24;;;;;;;5.30;2.05;;;;;;;7.91;82.97;99686.88;5091982;28;20356;-65
2021/11/01 04:13:56;;;;;;;5.80;1.70;;;;;;;7.93;83.03;99692.81;5091887;28;20051;-66
2021/11/01 04:16:25;;;;;;;6.67;1.90;;;;;;;7.93;83.16;99687.50;5092062;28;20024;-65
2021/11/01 04:21:15;;;;;;;6.70;1.50;;;;;;;8.01;83.13;99681.41;5091921;28;20027;-65
2021/11/01 04:23:41;;;;;;;9.00;2.55;;;;;;;8.03;82.81;99684.72;5091851;28;20028;-65
2021/11/01 04:26:07;;;;;;;5.30;1.67;;;;;;;8.05;82.75;99680.06;5091659;28;20055;-66
2021/11/01 04:28:33;;;;;;;8.25;2.00;;;;;;;8.06;82.58;99681.75;5091413;28;20285;-66
2021/11/01 04:31:09;;;;;;;7.72;1.85;;;;;;;8.07;82.61;99678.91;5091503;28;20024;-65
2021/11/01 04:33:36;;;;;;;8.10;1.60;;;;;;;8.09;82.32;99687.56;5091816;28;20026;-65
2021/11/01 04:36:01;;;;;;;7.15;1.70;;;;;;;8.08;82.18;99683.25;5091491;28;20475;-66
2021/11/01 04:53:58;;;;;;;10.93;2.90;;;;;;;8.11;82.11;99712.09;5091887;28;20055;-64
2021/11/01 04:56:25;;;;;;;5.93;1.60;;;;;;;8.15;82.42;99699.34;5091477;28;20028;-64
2021/11/01 04:58:55;;;;;;;5.80;1.90;;;;;;;8.16;81.79;99701.00;5090934;28;20498;-65
2021/11/01 05:01:29;;;;;;;3.67;1.40;;;;;;;8.17;81.97;99700.00;5091099;28;20034;-66
2021/11/01 05:03:57;;;;;;;7.70;1.77;;;;;;;8.20;81.58;99696.22;5090992;28;20024;-65
2021/11/01 05:06:25;;;;;;;3.78;1.27;;;;;;;8.20;81.65;99690.91;5090995;28;20050;-65
2021/11/01 05:08:58;;;;;;;3.83;1.60;;;;;;;8.09;81.64;99692.03;5091245;28;20028;-66
2021/11/01 05:11:31;;;;;;;6.37;1.60;;;;;;;8.02;81.99;99693.69;5091121;28;20094;-65
2021/11/01 05:13:58;;;;;;;5.20;1.40;;;;;;;7.94;82.07;99697.16;5090811;28;20024;-67
2021/11/01 05:19:32;;;;;;;5.27;1.87;;;;;;;7.79;82.48;99713.69;5091108;28;20039;-65
2021/11/01 05:22:13;;;;;;;6.88;1.90;;;;;;;7.71;82.97;99715.47;5090150;28;20039;-65
2021/11/01 05:27:37;;;;;;;6.43;1.70;;;;;;;7.69;83.25;99720.13;5091075;28;20066;-65
2021/11/01 05:30:10;;;;;;;6.07;1.57;;;;;;;7.69;83.07;99717.47;5090729;28;20073;-65
2021/11/01 05:32:38;;;;;;;8.87;2.07;;;;;;;7.72;82.80;99715.34;5090766;28;20028;-65
2021/11/01 05:35:04;;;;;;;3.63;1.20;;;;;;;7.73;82.74;99724.09;5072533;28;20055;-65
2021/11/01 05:37:29;;;;;;;9.10;1.92;;;;;;;7.73;82.55;99713.50;5090759;28;20060;-65
2021/11/01 05:39:55;;;;;;;5.17;1.70;;;;;;;7.74;82.02;99721.28;5090689;28;20057;-65
2021/11/01 05:42:20;;;;;;;5.20;1.60;;;;;;;7.78;82.33;99730.56;5090508;28;20137;-66
2021/11/01 05:44:46;;;;;;;4.00;1.63;;;;;;;7.79;82.55;99715.50;5090728;28;20035;-65
2021/11/01 05:47:12;;;;;;;8.03;1.60;;;;;;;7.79;82.25;99742.84;5090608;28;20555;-65
2021/11/01 05:49:39;;;;;;;5.93;2.27;;;;;;;7.81;82.12;99732.09;5090957;28;20286;-65
2021/11/01 05:52:10;;;;;;;5.40;1.73;;;;;;;7.84;81.75;99731.78;5091846;28;20024;-65
2021/11/01 05:54:35;;;;;;;4.20;1.63;;;;;;;7.84;81.90;99725.63;5094487;28;20028;-65
2021/11/01 05:57:11;;;;;;;7.28;2.60;;;;;;;7.78;81.88;99735.88;5094575;28;20030;-65
2021/11/01 06:07:24;;;;;;;4.50;1.53;;;;;;;7.58;82.58;99737.16;5094419;28;20089;-64
2021/11/01 06:14:59;;;;;;;6.70;1.57;;;;;;;7.50;82.72;99747.69;5094399;28;20031;-65
2021/11/01 06:17:24;;;;;;;4.82;1.70;;;;;;;7.44;83.11;99749.16;5094173;28;20024;-66
2021/11/01 06:19:50;;;;;;;6.53;1.80;;;;;;;7.42;83.40;99751.13;5094126;28;20035;-65
2021/11/01 06:22:16;;;;;;;7.10;1.63;;;;;;;7.38;83.47;99752.44;5094040;28;20024;-66
2021/11/01 06:27:13;;;;;;;8.67;1.57;;;;;;;7.42;83.04;99735.22;5094183;28;20035;-64
2021/11/01 06:43:10;;;;;;;8.40;1.50;;;;;;;7.68;82.96;99774.13;5093826;28;20066;-70
2021/11/01 06:51:16;;;;;;;8.07;1.97;;;;;;;7.73;83.69;99793.06;5093749;28;20047;-67
2021/11/01 07:15:16;;;;;;;4.80;1.80;;;;;;;7.77;82.46;99774.03;5010558;28;20064;-67
2021/11/01 07:18:17;;;;;;;9.50;1.60;;;;;;;7.77;82.23;99775.84;5010494;28;20034;-69
2021/11/01 08:20:45;;;;;;;6.32;1.50;;;;;;;9.61;72.24;99823.53;5092138;28;20035;-66
2021/11/01 08:28:50;;;;;;;5.57;1.67;;;;;;;9.44;74.72;99827.19;5091840;28;20105;-67
2021/11/01 08:44:47;;;;;;;4.93;1.50;;;;;;;9.48;73.85;99815.22;5091390;28;20043;-66
2021/11/01 08:47:30;;;;;;;3.33;1.20;;;;;;;9.46;74.57;99809.25;5090979;28;20118;-65
2021/11/01 09:20:06;;;;;;;4.97;1.50;;;;;;;10.17;70.62;99833.31;5091088;28;20086;-64
2021/11/01 09:27:34;;;;;;;6.05;1.60;;;;;;;10.30;71.20;99830.91;5090026;28;20601;-61
2021/11/01 09:43:07;;;;;;;7.90;1.77;;;;;;;10.37;69.44;99847.03;5090699;28;20481;-62
2021/11/01 09:45:36;;;;;;;3.55;1.25;;;;;;;10.41;69.39;99844.88;5090075;28;20035;-62
2021/11/01 09:48:05;;;;;;;3.65;1.33;;;;;;;10.41;68.74;99851.03;5090050;28;20306;-63
2021/11/01 09:50:31;;;;;;;2.60;1.13;;;;;;;10.43;68.18;99850.88;5090055;28;20031;-62
2021/11/01 09:53:00;;;;;;;2.92;1.33;;;;;;;10.41;68.03;99844.88;5089927;28;20035;-62
2021/11/01 10:00:47;;;;;;;4.32;1.38;;;;;;;10.36;68.71;99847.22;5090236;28;20051;-62
2021/11/01 10:03:13;;;;;;;1.60;1.07;;;;;;;10.35;68.71;99842.88;5090362;28;20028;-62
2021/11/01 10:05:38;;;;;;;5.45;1.27;;;;;;;10.34;67.62;99844.72;5090152;28;20035;-62
2021/11/01 10:08:17;;;;;;;6.28;1.00;;;;;;;10.38;68.60;99854.03;5089927;28;20021;-61
2021/11/01 10:10:42;;;;;;;9.30;1.48;;;;;;;10.37;68.29;99846.22;5090035;28;20032;-61
2021/11/01 10:13:13;;;;;;;8.77;1.65;;;;;;;10.36;69.08;99847.22;5089917;28;20512;-62
2021/11/01 10:18:23;;;;;;;2.50;1.20;;;;;;;10.39;68.76;99847.72;5089966;28;20482;-62
2021/11/01 10:20:52;;;;;;;2.80;1.10;;;;;;;10.38;68.09;99845.22;5089998;28;20024;-62
2021/11/01 10:23:26;;;;;;;4.38;1.25;;;;;;;10.42;68.01;99850.03;5090011;28;20058;-62
2021/11/01 10:25:52;;;;;;;2.15;1.20;;;;;;;10.45;68.65;99843.50;5089662;28;20544;-62
2021/11/01 10:28:31;;;;;;;5.28;1.52;;;;;;;10.46;68.37;99856.66;5090109;28;20035;-61
2021/11/01 10:31:12;;;;;;;2.17;1.10;;;;;;;10.54;69.33;99852.31;5090058;28;20054;-62
2021/11/01 10:33:45;;;;;;;4.38;1.30;;;;;;;10.59;67.31;99861.41;5090169;28;20068;-61
2021/11/01 10:36:38;;;;;;;4.72;1.00;;;;;;;10.60;67.23;99856.94;5090056;28;20496;-64
2021/11/01 10:39:13;;;;;;;3.90;1.15;;;;;;;10.72;67.54;99852.03;5089491;28;20032;-62
2021/11/01 11:12:45;;;;;;;3.30;1.33;;;;;;;12.07;64.01;99869.19;5030650;28;20602;-61
2021/11/01 11:15:13;;;;;;;4.00;1.20;;;;;;;12.23;63.31;99873.50;5014334;28;20100;-62
2021/11/01 11:26:36;;;;;;;7.35;1.58;;;;;;;12.16;63.12;99868.06;5029878;28;20112;-62
2021/11/01 11:50:36;;;;;;;2.58;1.15;;;;;;;12.10;62.32;99868.81;5091898;28;20511;-62
2021/11/01 11:53:14;;;;;;;3.33;1.45;;;;;;;12.00;62.10;99860.25;5092097;28;20101;-67
2021/11/01 11:55:41;;;;;;;7.25;1.90;;;;;;;12.05;62.80;99856.00;5091656;28;20119;-69
2021/11/01 11:58:07;;;;;;;;;;;;;;;12.04;61.75;99861.53;5092344;28;20595;-63
2021/11/01 12:00:35;;;;;;;8.52;1.67;;;;;;;12.04;61.93;99867.72;5092012;28;19912;-62
2021/11/01 12:03:12;;;;;;;3.05;1.40;;;;;;;12.11;61.70;99862.47;5091873;28;20468;-63
2021/11/01 12:05:44;;;;;;;5.47;1.60;;;;;;;12.17;62.63;99871.56;5092024;28;20028;-63
2021/11/01 12:08:29;;;;;;;2.47;1.17;;;;;;;12.28;62.30;99858.56;5091840;28;20070;-62
2021/11/01 12:18:58;;;;;;;4.25;1.40;;;;;;;12.36;61.05;99871.00;5091842;28;20032;-63
2021/11/01 12:21:24;;;;;;;4.93;1.38;;;;;;;12.33;60.01;99879.38;5091657;28;20474;-62
2021/11/01 12:23:50;;;;;;;2.63;1.40;;;;;;;12.33;59.90;99867.84;5091555;28;20028;-62
2021/11/01 12:26:21;;;;;;;5.70;1.30;;;;;;;12.38;60.46;99862.78;5091269;28;20044;-62
2021/11/01 12:28:53;;;;;;;2.92;1.50;;;;;;;12.48;61.73;99862.50;5091594;28;20038;-62
2021/11/01 12:31:19;;;;;;;3.42;1.38;;;;;;;12.50;60.91;99858.63;5091303;28;20023;-62
2021/11/01 12:34:06;;;;;;;2.15;1.38;;;;;;;12.59;60.69;99860.16;5073154;28;20081;-64
2021/11/01 12:39:09;;;;;;;2.88;1.83;;;;;;;12.50;59.27;99863.97;5091320;28;20756;-65
2021/11/01 12:57:35;;;;;;;3.10;1.38;;;;;;;11.71;61.76;99872.53;5008755;28;20514;-66
2021/11/01 13:00:04;;;;;;;4.20;1.35;;;;;;;11.52;62.39;99863.22;5008642;28;20109;-66
2021/11/01 13:02:43;;;;;;;2.22;1.13;;;;;;;11.54;63.25;99870.03;5007669;28;20033;-66
2021/11/01 13:05:16;;;;;;;5.63;1.40;;;;;;;11.55;63.35;99870.88;5008673;28;20017;-66
2021/11/01 13:10:26;;;;;;;4.57;1.60;;;;;;;11.44;63.91;99870.28;5008507;28;20098;-65
2021/11/01 13:18:18;;;;;;;5.47;1.90;;;;;;;11.32;65.80;99868.22;5008353;28;20038;-65
2021/11/01 13:20:48;;;;;;;3.95;1.50;;;;;;;11.30;65.53;99863.91;5008235;28;20042;-66
2021/11/01 13:23:15;;;;;;;5.47;1.88;;;;;;;11.44;65.86;99869.47;5008174;28;20470;-62
2021/11/01 13:28:36;;;;;;;7.95;1.70;;;;;;;11.72;64.50;99852.84;5089751;28;19918;-65
2021/11/01 13:36:46;;;;;;;6.10;2.10;;;;;;;12.22;62.82;99867.31;5090510;28;20115;-65
2021/11/01 13:39:25;;;;;;;5.50;1.98;;;;;;;12.09;62.34;99880.50;5090552;28;20028;-65
2021/11/01 13:41:51;;;;;;;4.57;1.92;;;;;;;12.04;62.56;99875.72;5090464;28;20028;-65
2021/11/01 13:44:22;;;;;;;4.63;1.92;;;;;;;12.12;63.22;99872.94;5090441;28;20027;-62
2021/11/01 13:46:52;;;;;;;4.85;1.70;;;;;;;12.05;63.42;99863.19;5090381;28;20482;-62
2021/11/01 13:49:19;;;;;;;5.53;1.85;;;;;;;11.87;63.88;99859.03;5090304;28;20467;-60
2021/11/01 13:51:48;;;;;;;4.93;1.60;;;;;;;11.83;63.26;99852.38;5071944;28;20016;-61
2021/11/01 13:57:01;;;;;;;3.83;1.60;;;;;;;11.67;63.80;99849.91;5090614;28;20047;-61
2021/11/01 14:13:12;;;;;;;4.50;1.58;;;;;;;11.12;64.66;99853.56;5091413;28;20169;-63
2021/11/01 14:29:17;;;;;;;3.65;1.48;;;;;;;10.90;65.38;99865.03;5093751;28;20128;-62
2021/11/01 14:59:20;;;;;;;1.13;0.80;;;;;;;10.33;63.79;99869.69;5093446;28;20476;-61
2021/11/01 16:16:41;;;;;;;2.25;0.90;;;;;;;8.71;73.36;99888.16;5092256;28;20076;-66
2021/11/01 16:19:06;;;;;;;1.65;0.70;;;;;;;8.64;73.37;99887.13;5091251;28;20089;-62
2021/11/01 16:21:32;;;;;;;0.60;0.60;;;;;;;8.58;73.39;99891.28;5091595;28;20044;-62
2021/11/01 16:23:58;;;;;;;0.88;0.77;;;;;;;8.52;73.12;99894.56;5091379;28;20166;-62
2021/11/01 16:26:25;;;;;;;2.73;0.90;;;;;;;8.47;73.67;99902.22;5090894;28;20043;-67
2021/11/01 16:28:58;;;;;;;4.77;0.70;;;;;;;8.40;74.08;99898.47;5090960;28;20023;-68
2021/11/01 16:34:20;;;;;;;0.60;0.57;;;;;;;8.34;74.10;99902.63;5091199;28;20036;-66
2021/11/01 16:39:24;;;;;;;2.30;1.10;;;;;;;8.21;74.38;99907.50;5082718;28;20081;-66
2021/11/01 16:41:49;;;;;;;1.47;0.70;;;;;;;8.12;75.07;99910.13;5073015;28;20081;-65
2021/11/01 16:44:20;;;;;;;0.67;0.67;;;;;;;8.04;74.88;99914.59;5080495;28;20020;-67
2021/11/01 16:46:47;;;;;;;3.27;0.70;;;;;;;8.01;75.21;99912.22;5091391;28;20303;-61
2021/11/01 16:49:13;;;;;;;2.63;0.70;;;;;;;7.97;75.36;99912.56;5091287;28;20032;-61
2021/11/01 16:51:40;;;;;;;1.20;0.70;;;;;;;7.93;75.06;99919.16;5083110;28;20031;-62
2021/11/01 16:54:08;;;;;;;1.57;0.83;;;;;;;7.88;75.81;99921.47;5079494;28;20032;-62
2021/11/01 16:59:34;;;;;;;2.13;0.80;;;;;;;7.88;75.97;99920.59;5070173;28;20040;-60
2021/11/01 17:04:49;;;;;;;1.77;0.70;;;;;;;7.87;75.97;99927.75;5070259;28;20028;-63
2021/11/01 17:07:34;;;;;;;1.43;0.70;;;;;;;7.80;76.65;99924.03;5069830;28;20051;-68
2021/11/01 18:40:42;;;;;;;6.10;2.70;;;;;;;7.15;83.72;99986.97;5093401;28;20042;-66
2021/11/01 18:51:05;;;;;;;3.53;2.60;;;;;;;7.07;83.96;99991.38;5093132;28;20039;-65
2021/11/01 18:53:42;;;;;;;2.92;2.60;;;;;;;7.08;83.95;99993.03;5092577;28;20024;-65
2021/11/01 18:56:11;;;;;;;4.77;2.47;;;;;;;7.08;83.80;99990.38;5092817;28;20069;-64
2021/11/01 18:58:41;;;;;;;3.83;2.50;;;;;;;7.08;83.91;99993.88;5092913;28;20030;-66
2021/11/01 19:01:12;;;;;;;4.13;2.63;;;;;;;7.06;83.63;100002.94;5092737;28;20408;-65
2021/11/01 19:03:44;;;;;;;4.07;2.37;;;;;;;7.04;84.09;100007.53;5093075;28;20020;-65
2021/11/01 19:09:15;;;;;;;3.27;2.47;;;;;;;7.04;83.66;100007.53;5093118;28;20039;-65
2021/11/01 21:24:34;;;;;;;6.77;2.70;;;;;;;6.44;82.77;100006.19;5086357;22;20042;-63
2021/11/01 21:27:02;;;;;;;3.17;2.30;;;;;;;6.38;82.84;100002.31;5106976;28;20055;-63
2021/11/01 21:29:28;;;;;;;3.27;2.30;;;;;;;6.36;83.11;100003.44;5111058;28;20120;-64
2021/11/01 21:31:54;;;;;;;2.90;2.50;;;;;;;6.33;83.25;99993.97;5111288;28;20038;-64
2021/11/01 21:34:28;;;;;;;3.47;2.43;;;;;;;6.32;83.21;99994.94;5110950;28;20020;-64
2021/11/01 21:36:54;;;;;;;3.57;2.30;;;;;;;6.32;83.44;99994.94;5110952;28;20151;-64
2021/11/01 21:39:22;;;;;;;3.25;2.20;;;;;;;6.30;83.39;99996.88;5110998;28;20098;-64
2021/11/01 21:41:47;;;;;;;3.17;2.23;;;;;;;6.26;83.41;100000.78;5110926;28;20077;-64
2021/11/01 21:44:13;;;;;;;4.43;2.20;;;;;;;6.25;83.46;99992.03;5092790;28;20421;-63
2021/11/01 21:46:38;;;;;;;4.20;2.30;;;;;;;6.24;83.72;99998.28;5111010;28;20030;-64
2021/11/01 21:49:04;;;;;;;4.90;2.63;;;;;;;6.21;83.58;100001.25;5110921;28;20043;-63
2021/11/01 21:51:32;;;;;;;2.20;2.00;;;;;;;6.17;83.58;100007.78;5110930;28;20031;-65
2021/11/01 21:56:58;;;;;;;4.00;2.43;;;;;;;6.10;84.11;100002.22;4988155;28;20049;-61
2021/11/01 21:59:43;;;;;;;3.50;2.50;;;;;;;6.10;84.29;99993.47;4988560;28;20430;-65
2021/11/01 22:18:31;;;;;;;3.73;2.73;;;;;;;6.07;84.61;99997.22;4988188;28;20061;-63
2021/11/01 22:24:06;;;;;;;4.30;2.87;;;;;;;6.04;84.66;99989.59;4949235;29;20135;-64
2021/11/01 22:42:09;;;;;;;3.87;2.80;;;;;;;5.88;85.40;100000.69;5030912;28;20479;-64
2021/11/01 22:57:58;;;;;;;4.50;3.77;;;;;;;5.64;86.38;99994.03;5016551;28;20558;-64
2021/11/01 23:00:32;;;;;;;3.95;3.40;;;;;;;5.61;86.38;99991.69;5058033;28;20126;-64
2021/11/01 23:03:03;;;;;;;5.20;3.70;;;;;;;5.57;86.56;99982.38;5113891;28;20011;-64
2021/11/01 23:32:44;;;;;;;5.40;4.13;;;;;;;5.43;87.79;99973.06;5113441;28;20038;-63
2021/11/01 23:35:09;;;;;;;6.17;4.23;;;;;;;5.42;88.00;99974.00;5113282;28;20107;-63
2021/11/01 23:37:34;;;;;;;4.73;4.00;;;;;;;5.42;87.99;99968.72;5094733;28;20115;-63
2021/11/01 23:40:00;;;;;;;4.83;3.93;;;;;;;5.44;88.00;99968.63;5112935;28;20055;-63
2021/11/01 23:42:27;;;;;;;5.20;4.40;;;;;;;5.44;87.98;99971.25;5113205;28;20023;-63
2021/11/01 23:44:54;;;;;;;5.50;4.27;;;;;;;5.42;87.85;99965.28;5112637;28;20103;-62
2021/11/01 23:47:22;;;;;;;5.83;4.03;;;;;;;5.38;88.23;99964.69;5112372;28;20024;-63
2021/11/01 23:49:47;;;;;;;5.80;4.27;;;;;;;5.39;88.38;99957.63;5112740;28;20038;-63
2021/11/01 23:52:14;;;;;;;4.70;4.30;;;;;;;5.38;88.51;99953.31;5112762;28;20103;-63
2021/11/01 23:54:45;;;;;;;6.70;4.70;;;;;;;5.43;88.26;99961.66;5112587;28;20057;-65
2021/11/01 23:57:14;;;;;;;4.93;4.43;;;;;;;5.44;88.48;99963.34;5112893;28;20023;-64
2021/11/01 23:59:40;;;;;;;5.93;3.97;;;;;;;5.42;88.19;99955.53;5112886;28;20030;-63
